Terminal Aerodrome Forecast
Issued by NWS Jacksonville, FL

Home | Current Version | Previous Version | Text Only | Print | Product List | Glossary On
Versions: 1 2 3 4 5 6 7 8 9 10 11 12 13 14 15 16 17 18 19
611
FTUS42 KJAX 291324 AAA
TAFGNV
TAF AMD
KGNV 291324Z 2913/3012 14003KT 3SM BR BKN002
     FM291430 28006KT P6SM SCT050
     FM300400 00000KT P6SM FEW060=

USA.gov is the U.S. government's official web portal to all federal, state and local government web resources and services.